EW1072 Weather Reports


Display with metric or nautical units.
time (UTC)temp
F
wind
direction
speed
MPH
gust
MPH
rain 1hr
in
rain 24hr
in
rain mn
in
humidity
%
barometer
mb
20200406163134 61 6 1.0 7.0 0.00 0.00 0.00 66 1019.2
20200406161624 61 77 1.0 4.0 0.00 0.00 0.00 68 1019.2
20200406160107 60 304 1.0 7.0 0.00 0.00 0.00 68 1019.3
20200406154701 61 84 0.0 4.0 0.00 0.00 0.00 68 1019.4
20200406153147 62 35 0.0 3.0 0.00 0.00 0.00 69 1019.4
20200406151713 61 68 1.0 4.0 0.00 0.00 0.00 68 1019.2
20200406150202 61 24 1.0 4.0 0.00 0.00 0.00 67 1019.2
20200406144630 61 57 2.0 8.0 0.00 0.00 0.00 68 1019.1
20200406143142 62 55 1.0 4.0 0.00 0.00 0.00 69 1018.8
20200406140157 61 60 1.0 5.0 0.00 0.00 0.00 72 1018.9
20200406134623 60 62 1.0 6.0 0.00 0.00 0.00 73 1018.9
20200406133051 59 47 2.0 7.0 0.00 0.00 0.00 74 1019.1
20200406131643 59 8 1.0 7.0 0.00 0.00 0.00 75 1019.1
20200406130104 59 68 1.0 7.0 0.00 0.00 0.00 75 1019.0
20200406124637 59 56 2.0 6.0 0.00 0.00 0.00 75 1018.8
20200406123126 59 37 2.0 7.0 0.00 0.00 0.00 80 1018.7
20200406121609 57 68 0.0 3.0 0.00 0.00 0.00 83 1018.6
20200406120101 56 260 0.0 3.0 0.00 0.00 0.00 85 1018.7
20200406114547 55 260 1.0 2.0 0.00 0.00 0.00 86 1018.5
20200406113209 54 259 1.0 2.0 0.00 0.00 0.00 87 1018.4
20200406111628 53 260 0.0 1.0 0.00 0.00 0.00 89 1017.9
20200406110127 53 263 0.0 1.0 0.00 0.00 0.00 90 1017.7
20200406104701 54 246 0.0 1.0 0.00 0.00 0.00 87 1017.8
20200406103033 54 221 0.0 1.0 0.00 0.00 0.00 86 1017.5
20200406101604 54 259 0.0 0.0 0.00 0.00 0.00 86 1017.4
20200406100043 54 260 0.0 1.0 0.00 0.00 0.00 86 1017.3
20200406094625 54 259 0.0 1.0 0.00 0.00 0.00 86 1017.3
20200406093053 54 255 0.0 0.0 0.00 0.00 0.00 86 1017.2
20200406091626 54 255 0.0 1.0 0.00 0.00 0.00 86 1017.3
20200406090040 55 239 0.0 0.0 0.00 0.00 0.00 85 1017.2
20200406084545 54 245 1.0 2.0 0.00 0.00 0.00 86 1017.2
20200406083102 55 242 0.0 3.0 0.00 0.00 0.00 86 1017.3
20200406081619 54 221 2.0 4.0 0.00 0.00 0.00 87 1017.3
20200406080228 54 228 5.0 7.0 0.00 0.00 0.00 89 1017.3
20200406074620 55 224 1.0 2.0 0.00 0.00 0.00 86 1017.4
20200406073102 55 222 0.0 2.0 0.00 0.00 0.00 83 1017.5
20200406071607 55 262 0.0 1.0 0.00 0.00 0.00 83 1017.5
20200406070115 54 262 0.0 2.0 0.00 0.00 0.00 84 1017.4
20200406064549 53 235 0.0 1.0 0.00 0.00 0.00 86 1017.4
20200406063117 53 228 0.0 0.0 0.00 0.00 0.00 87 1017.4
20200406061553 53 229 0.0 0.0 0.00 0.00 0.00 86 1017.4
20200406060039 54 228 0.0 0.0 0.00 0.00 0.00 85 1017.4
20200406054540 55 228 0.0 1.0 0.00 0.00 0.00 83 1017.4
20200406053031 55 224 1.0 2.0 0.00 0.00 0.00 82 1017.5
20200406051559 55 226 0.0 1.0 0.00 0.00 0.00 82 1017.6
20200406050041 55 231 0.0 1.0 0.00 0.00 0.00 83 1017.9
20200406044546 55 263 0.0 1.0 0.00 0.00 0.00 84 1018.1
20200406043029 55 229 3.0 5.0 0.00 0.00 0.00 81 1017.9
20200406041543 55 237 0.0 2.0 0.00 0.00 0.00 81 1018.1
20200406040017 55 232 1.0 2.0 0.00 0.00 0.00 81 1018.3
20200406034609 55 226 0.0 0.0 0.00 0.00 0.00 80 1018.1
20200406033043 55 240 1.0 2.0 0.00 0.00 0.00 80 1018.3
20200406031524 55 222 0.0 2.0 0.00 0.00 0.00 81 1018.1
20200406030043 55 240 0.0 0.0 0.00 0.00 0.00 80 1018.1
20200406024535 55 240 0.0 0.0 0.00 0.00 0.00 79 1018.2
20200406023052 54 259 0.0 0.0 0.00 0.00 0.00 79 1018.1
20200406021627 54 259 0.0 0.0 0.00 0.00 0.00 79 1018.2
20200406020021 54 259 0.0 0.0 0.00 0.00 0.00 78 1018.2
20200406014538 54 259 0.0 0.0 0.00 0.00 0.00 77 1018.2
20200406013033 54 259 0.0 0.0 0.00 0.00 0.00 77 1018.1
20200406011621 54 259 0.0 0.0 0.00 0.00 0.00 78 1018.2
20200406010030 54 259 0.0 0.0 0.00 0.00 0.00 78 1018.3
20200406004529 54 259 0.0 0.0 0.00 0.00 0.00 78 1018.1
20200406003016 54 259 0.0 0.0 0.00 0.00 0.00 78 1017.9
20200406001532 55 111 0.0 1.0 0.00 0.00 0.00 79 1017.8
20200406000025 55 112 0.0 0.0 0.00 0.00 0.00 79 1017.8
20200405234554 55 112 0.0 1.0 0.00 0.00 0.00 79 1017.7
20200405233019 56 46 0.0 1.0 0.00 0.00 0.00 78 1017.8
20200405231531 57 72 0.0 1.0 0.00 0.00 0.00 76 1017.9
20200405230038 58 127 0.0 2.0 0.00 0.00 0.00 73 1017.9
20200405224518 59 221 0.0 2.0 0.00 0.00 0.00 72 1017.7
20200405223016 60 179 0.0 1.0 0.00 0.00 0.00 70 1017.6
20200405221514 60 143 0.0 2.0 0.00 0.00 0.00 69 1017.8
20200405220020 60 177 0.0 1.0 0.00 0.00 0.00 67 1017.9
20200405214609 61 151 0.0 2.0 0.00 0.00 0.00 64 1017.9
20200405213027 61 211 0.0 1.0 0.00 0.00 0.00 64 1017.9
20200405211532 63 145 0.0 2.0 0.00 0.00 0.00 62 1017.8
20200405210059 63 283 0.0 2.0 0.00 0.00 0.00 61 1017.9
20200405204517 64 145 0.0 2.0 0.00 0.00 0.00 62 1017.8
20200405203018 63 198 0.0 2.0 0.00 0.00 0.00 61 1017.9
20200405201528 63 140 0.0 3.0 0.00 0.00 0.00 63 1018.0
20200405200112 62 113 0.0 4.0 0.00 0.00 0.00 65 1018.2
20200405194523 63 85 0.0 2.0 0.00 0.00 0.00 66 1018.1
20200405193015 63 235 0.0 3.0 0.00 0.00 0.00 63 1018.2
20200405191525 64 4 0.0 1.0 0.00 0.00 0.00 63 1018.4
20200405190014 63 231 0.0 2.0 0.00 0.00 0.00 64 1018.6
20200405184513 63 160 0.0 2.0 0.00 0.00 0.00 64 1019.0
20200405183027 62 200 0.0 4.0 0.00 0.00 0.00 66 1019.2
20200405181505 62 76 0.0 1.0 0.00 0.00 0.00 68 1019.4
20200405180005 62 205 0.0 3.0 0.00 0.00 0.00 68 1019.6
20200405174510 60 151 0.0 2.0 0.00 0.00 0.00 72 1019.7
20200405173028 61 56 0.0 2.0 0.00 0.00 0.00 71 1019.8
20200405171503 61 65 0.0 1.0 0.00 0.00 0.00 72 1019.9
20200405170230 60 51 0.0 2.0 0.00 0.00 0.00 70 1019.9
20200405164509 60 228 0.0 1.0 0.00 0.00 0.00 69 1020.0